Time,TemperatureF,DewpointF,PressureIn,WindDirection,WindDirectionDegrees,WindSpeedMPH,WindSpeedGustMPH,Humidity,HourlyPrecipIn,Conditions,Clouds,dailyrainin,SoftwareType,DateUTC
2015-03-04 00:14:00,36.3,36.0,29.61,North,0,8.3,-999.0,99,-99.99,,,0.00,Acu-Link.com,2015-03-04 05:14:00,
2015-03-04 00:29:00,36.3,36.0,29.60,NNW,337,8.3,-999.0,99,-99.99,,,0.00,Acu-Link.com,2015-03-04 05:29:00,
2015-03-04 00:44:00,35.8,35.5,29.62,NW,315,8.9,-999.0,99,-99.99,,,0.01,Acu-Link.com,2015-03-04 05:44:00,
2015-03-04 00:59:00,36.0,35.7,29.61,NW,315,6.8,-999.0,99,-99.99,,,0.01,Acu-Link.com,2015-03-04 05:59:00,
2015-03-04 01:14:00,35.4,35.1,29.62,NW,315,3.2,-999.0,99,-99.99,,,0.02,Acu-Link.com,2015-03-04 06:14:00,
2015-03-04 01:30:00,35.2,34.9,29.61,NW,315,5.8,-999.0,99,-99.99,,,0.04,Acu-Link.com,2015-03-04 06:30:00,
2015-03-04 01:45:00,35.4,35.1,29.62,West,270,2.2,-999.0,99,-99.99,,,0.06,Acu-Link.com,2015-03-04 06:45:00,
2015-03-04 02:00:00,34.9,34.6,29.64,NW,315,4.2,-999.0,99,-99.99,,,0.09,Acu-Link.com,2015-03-04 07:00:00,
2015-03-04 02:15:00,34.9,34.6,29.63,NW,315,2.2,-999.0,99,-99.99,,,0.11,Acu-Link.com,2015-03-04 07:15:00,
2015-03-04 02:30:00,34.9,34.6,29.65,SSW,202,3.2,-999.0,99,-99.99,,,0.15,Acu-Link.com,2015-03-04 07:30:00,
2015-03-04 02:46:00,34.7,34.4,29.63,SW,225,1.7,-999.0,99,-99.99,,,0.17,Acu-Link.com,2015-03-04 07:46:00,
2015-03-04 03:01:00,34.5,34.2,29.63,SW,225,1.7,-999.0,99,-99.99,,,0.20,Acu-Link.com,2015-03-04 08:01:00,
2015-03-04 03:17:00,34.5,34.2,29.63,NW,315,3.2,-999.0,99,-99.99,,,0.23,Acu-Link.com,2015-03-04 08:17:00,
2015-03-04 03:32:00,34.5,34.2,29.62,NW,315,4.7,-999.0,99,-99.99,,,0.28,Acu-Link.com,2015-03-04 08:32:00,
2015-03-04 03:47:00,34.3,34.0,29.62,NW,315,4.2,-999.0,99,-99.99,,,0.30,Acu-Link.com,2015-03-04 08:47:00,
2015-03-04 04:02:00,34.2,33.9,29.64,NW,315,2.7,-999.0,99,-99.99,,,0.38,Acu-Link.com,2015-03-04 09:02:00,
2015-03-04 04:17:00,34.0,33.7,29.64,NW,315,0.0,-999.0,99,-99.99,,,0.41,Acu-Link.com,2015-03-04 09:17:00,
2015-03-04 04:33:00,33.8,33.5,29.65,NW,315,0.0,-999.0,99,-99.99,,,0.44,Acu-Link.com,2015-03-04 09:33:00,
2015-03-04 04:48:00,33.4,33.1,29.66,NW,315,0.0,-999.0,99,-99.99,,,0.46,Acu-Link.com,2015-03-04 09:48:00,
2015-03-04 05:03:00,33.6,33.3,29.66,NW,315,0.0,-999.0,99,-99.99,,,0.48,Acu-Link.com,2015-03-04 10:03:00,
2015-03-04 05:18:00,33.4,33.1,29.65,NW,315,0.0,-999.0,99,-99.99,,,0.50,Acu-Link.com,2015-03-04 10:18:00,
2015-03-04 05:33:00,33.4,33.1,29.69,NW,315,1.7,-999.0,99,-99.99,,,0.52,Acu-Link.com,2015-03-04 10:33:00,
2015-03-04 05:48:00,33.4,33.1,29.70,NW,315,3.2,-999.0,99,-99.99,,,0.52,Acu-Link.com,2015-03-04 10:48:00,
2015-03-04 06:03:00,33.3,33.0,29.69,NW,315,2.7,-999.0,99,-99.99,,,0.52,Acu-Link.com,2015-03-04 11:03:00,
2015-03-04 06:18:00,32.9,32.7,29.70,NW,315,3.7,-999.0,99,-99.99,,,0.53,Acu-Link.com,2015-03-04 11:18:00,
2015-03-04 06:33:00,32.9,32.7,29.70,NW,315,2.7,-999.0,99,-99.99,,,0.53,Acu-Link.com,2015-03-04 11:33:00,
2015-03-04 06:48:00,32.7,32.5,29.70,NW,315,3.7,-999.0,99,-99.99,,,0.54,Acu-Link.com,2015-03-04 11:48:00,
2015-03-04 07:04:00,32.7,32.5,29.71,NW,315,0.0,-999.0,99,-99.99,,,0.54,Acu-Link.com,2015-03-04 12:04:00,
2015-03-04 07:19:00,32.7,32.5,29.72,NW,315,2.7,-999.0,99,-99.99,,,0.56,Acu-Link.com,2015-03-04 12:19:00,
2015-03-04 07:34:00,32.7,32.5,29.71,NW,315,0.0,-999.0,99,-99.99,,,0.56,Acu-Link.com,2015-03-04 12:34:00,
2015-03-04 07:49:00,32.7,32.5,29.71,NW,315,0.0,-999.0,99,-99.99,,,0.56,Acu-Link.com,2015-03-04 12:49:00,
2015-03-04 08:04:00,32.7,32.5,29.72,NW,315,3.7,-999.0,99,-99.99,,,0.56,Acu-Link.com,2015-03-04 13:04:00,
2015-03-04 08:20:00,32.7,32.5,29.72,NW,315,4.2,-999.0,99,-99.99,,,0.56,Acu-Link.com,2015-03-04 13:20:00,
2015-03-04 08:35:00,32.7,32.5,29.71,NW,315,3.2,-999.0,99,-99.99,,,0.56,Acu-Link.com,2015-03-04 13:35:00,
2015-03-04 08:50:00,32.9,32.7,29.73,NW,315,3.7,-999.0,99,-99.99,,,0.56,Acu-Link.com,2015-03-04 13:50:00,
2015-03-04 09:05:00,33.1,32.8,29.74,NW,315,3.2,-999.0,99,-99.99,,,0.56,Acu-Link.com,2015-03-04 14:05:00,
2015-03-04 09:20:00,33.1,32.8,29.72,NW,315,3.2,-999.0,99,-99.99,,,0.56,Acu-Link.com,2015-03-04 14:20:00,
2015-03-04 09:36:00,33.1,32.8,29.71,NW,315,4.7,-999.0,99,-99.99,,,0.56,Acu-Link.com,2015-03-04 14:36:00,
2015-03-04 09:51:00,33.6,33.3,29.72,NW,315,5.8,-999.0,99,-99.99,,,0.56,Acu-Link.com,2015-03-04 14:51:00,
2015-03-04 10:06:00,33.6,33.3,29.73,NW,315,5.3,-999.0,99,-99.99,,,0.56,Acu-Link.com,2015-03-04 15:06:00,
2015-03-04 10:21:00,33.6,33.3,29.72,NW,315,7.8,-999.0,99,-99.99,,,0.56,Acu-Link.com,2015-03-04 15:21:00,
2015-03-04 10:37:00,33.6,33.3,29.72,NW,315,5.8,-999.0,99,-99.99,,,0.56,Acu-Link.com,2015-03-04 15:37:00,
2015-03-04 10:52:00,33.8,33.5,29.71,NW,315,5.8,-999.0,99,-99.99,,,0.56,Acu-Link.com,2015-03-04 15:52:00,
2015-03-04 11:07:00,34.2,33.9,29.73,NW,315,4.7,-999.0,99,-99.99,,,0.56,Acu-Link.com,2015-03-04 16:07:00,
2015-03-04 11:23:00,34.0,33.7,29.73,NW,315,2.7,-999.0,99,-99.99,,,0.56,Acu-Link.com,2015-03-04 16:23:00,
2015-03-04 11:38:00,34.7,34.4,29.73,NW,315,4.7,-999.0,99,-99.99,,,0.56,Acu-Link.com,2015-03-04 16:38:00,
2015-03-04 11:53:00,34.7,34.4,29.74,NW,315,4.2,-999.0,99,-99.99,,,0.56,Acu-Link.com,2015-03-04 16:53:00,
2015-03-04 12:09:00,35.4,35.1,29.73,NW,315,3.2,-999.0,99,-99.99,,,0.56,Acu-Link.com,2015-03-04 17:09:00,
2015-03-04 12:24:00,35.1,34.6,29.74,NW,315,4.7,-999.0,98,-99.99,,,0.56,Acu-Link.com,2015-03-04 17:24:00,
2015-03-04 12:39:00,35.1,34.8,29.74,NW,315,4.7,-999.0,99,-99.99,,,0.56,Acu-Link.com,2015-03-04 17:39:00,
2015-03-04 12:54:00,34.7,34.4,29.74,NW,315,6.3,-999.0,99,-99.99,,,0.56,Acu-Link.com,2015-03-04 17:54:00,
2015-03-04 13:10:00,34.7,34.4,29.74,NW,315,4.7,-999.0,99,-99.99,,,0.56,Acu-Link.com,2015-03-04 18:10:00,
2015-03-04 13:25:00,34.5,34.2,29.74,NW,315,6.8,-999.0,99,-99.99,,,0.56,Acu-Link.com,2015-03-04 18:25:00,
2015-03-04 13:40:00,34.2,33.9,29.73,NW,315,6.3,-999.0,99,-99.99,,,0.56,Acu-Link.com,2015-03-04 18:40:00,
2015-03-04 13:55:00,34.0,33.7,29.73,NW,315,6.3,-999.0,99,-99.99,,,0.56,Acu-Link.com,2015-03-04 18:55:00,
2015-03-04 14:10:00,33.4,33.1,29.73,NW,315,9.4,-999.0,99,-99.99,,,0.56,Acu-Link.com,2015-03-04 19:10:00,
2015-03-04 14:25:00,33.3,33.0,29.73,NW,315,8.3,-999.0,99,-99.99,,,0.56,Acu-Link.com,2015-03-04 19:25:00,
2015-03-04 14:40:00,33.1,32.6,29.73,NNW,337,6.8,-999.0,98,-99.99,,,0.56,Acu-Link.com,2015-03-04 19:40:00,
2015-03-04 14:56:00,33.1,32.6,29.73,NW,315,8.9,-999.0,98,-99.99,,,0.56,Acu-Link.com,2015-03-04 19:56:00,
2015-03-04 15:11:00,33.3,32.5,29.73,NW,315,6.3,-999.0,97,-99.99,,,0.56,Acu-Link.com,2015-03-04 20:11:00,
2015-03-04 15:26:00,33.1,32.1,29.74,NW,315,6.3,-999.0,96,-99.99,,,0.56,Acu-Link.com,2015-03-04 20:26:00,